Bar Harbor, ME

7:02 AM EST on December 08, 2016 (GMT -0500)
19 Strawberry Hill Road | | Change Station

Elev 173 ft 44.37 °N, 68.20 °W | Updated 1 second ago

Overcast
Overcast
32.3 °F
Feels Like 32 °F
N
3.0
Wind Variable Wind from NNE
Gusts 5.0 mph

Today
High -- | Low -- °F
--% Chance of Precip.
Yesterday
High -- | Low -- °F
Precip. -- in
Pressure 29.91 in
Visibility 9.0 miles
Clouds Overcast 5000 ft
Windchill 32 °F
Dew Point 26 °F
Humidity 80%
Rainfall 0.09 in
Snow Depth Not available.
6:56 AM 3:53 PM
Waxing Gibbous, 62% visible
METAR KBHB 081156Z AUTO 28004KT 9SM OVC050 M01/M01 A2989 RMK AO2 SLP126 T10061011 11006 21022 58006 FZRANO
Pressure 29.91 in
Visibility 9.0 miles
Clouds Overcast 5000 ft
Windchill 32 °F
Dew Point 26 °F
Humidity 80%
Rainfall 0.09 in
Snow Depth Not available.
6:56 AM 3:53 PM
Waxing Gibbous, 62% visible
METAR KBHB 081156Z AUTO 28004KT 9SM OVC050 M01/M01 A2989 RMK AO2 SLP126 T10061011 11006 21022 58006 FZRANO

10-Day Weather Forecast

Almanac

Astronomy

Dec. 08, 2016 Rise Set
Actual Time
Civil Twilight
Nautical Twilight
Astronomical Twilight
Moon
Length of Visible Light
Length of Day
Tomorrow will be .
, % of the Moon is Illuminated

Today's Extremes

State Highs State Lows

Community

WunderPhotos

Upload Photos

1,956,267 photos uploaded!

WunderBlog® & News

Nearby

Air Quality

  Air Quality AQ Index Pollutant
Not available.

Snow Depth

Station Depth Elevation

Earthquake Activity

City Distance Mag. Time & Date
Minimum magnitude displayed is 2.5.

Coastal Water Temperatures

Place Temperature

Stations

Nearby Weather Stations

Station Location Temp. Windchill Dew Point Humidity Wind Precip. Elev Updated Type
                   

Watches & Warnings

There are currently no watches in effect.